createdAt,value
2023-09-18T00:00:53.001Z,55.20
2023-09-18T00:03:21.937Z,56.20
2023-09-18T00:05:49.335Z,56.20
2023-09-18T00:08:17.062Z,56.10
2023-09-18T00:10:48.161Z,56.80
2023-09-18T00:13:15.178Z,56.60
2023-09-18T00:15:42.333Z,56.40
2023-09-18T00:18:09.245Z,57.00
2023-09-18T00:20:36.441Z,57.20
2023-09-18T00:23:03.924Z,57.00
2023-09-18T00:25:32.015Z,57.50
2023-09-18T00:27:59.076Z,57.20
2023-09-18T00:30:26.080Z,57.50
2023-09-18T00:32:53.338Z,57.40
2023-09-18T00:35:20.279Z,58.00
2023-09-18T00:37:49.432Z,57.80
2023-09-18T00:40:16.473Z,57.90
2023-09-18T00:42:43.574Z,57.80
2023-09-18T00:45:10.805Z,58.10
2023-09-18T00:47:38.251Z,58.10
2023-09-18T00:50:08.206Z,58.10
2023-09-18T00:52:35.417Z,57.70
2023-09-18T00:55:03.222Z,57.40
2023-09-18T00:57:30.471Z,56.70
2023-09-18T00:59:57.355Z,56.40
2023-09-18T01:02:24.983Z,56.20
2023-09-18T01:04:51.991Z,55.70
2023-09-18T01:07:19.284Z,55.80
2023-09-18T01:09:46.207Z,55.60
2023-09-18T01:12:23.473Z,55.10
2023-09-18T01:15:12.386Z,55.50
2023-09-18T01:17:40.107Z,55.60
2023-09-18T01:20:10.106Z,55.80
2023-09-18T01:22:37.018Z,55.90
2023-09-18T01:25:04.152Z,55.60
2023-09-18T01:27:31.045Z,56.50
2023-09-18T01:29:57.909Z,56.60
2023-09-18T01:32:29.279Z,57.00
2023-09-18T01:34:58.413Z,57.40
2023-09-18T01:37:29.446Z,57.20
2023-09-18T01:40:00.419Z,58.60
2023-09-18T01:42:30.977Z,57.80
2023-09-18T01:44:57.908Z,59.20
2023-09-18T01:47:25.166Z,59.60
2023-09-18T01:49:52.031Z,59.60
2023-09-18T01:52:19.142Z,59.60
2023-09-18T01:54:46.288Z,59.40
2023-09-18T01:57:13.650Z,59.60
2023-09-18T01:59:42.479Z,59.50
2023-09-18T02:02:12.313Z,59.70
2023-09-18T02:05:06.025Z,59.90
2023-09-18T02:07:28.666Z,60.30
2023-09-18T02:09:55.691Z,60.60
2023-09-18T02:12:22.628Z,60.50
2023-09-18T02:14:49.500Z,60.30
2023-09-18T02:17:16.649Z,60.60
2023-09-18T02:19:44.327Z,60.10
2023-09-18T02:22:11.248Z,59.90
2023-09-18T02:24:38.180Z,59.60
2023-09-18T02:27:06.628Z,58.10
2023-09-18T02:29:33.489Z,58.50
2023-09-18T02:32:00.498Z,58.20
2023-09-18T02:34:27.441Z,59.20
2023-09-18T02:36:54.281Z,58.40
2023-09-18T02:39:21.272Z,58.50
2023-09-18T02:41:48.110Z,59.50
2023-09-18T02:44:14.968Z,59.60
2023-09-18T02:46:44.594Z,59.90
2023-09-18T02:49:11.553Z,60.00
2023-09-18T02:51:38.509Z,60.90
2023-09-18T02:54:05.732Z,60.20
2023-09-18T02:56:32.729Z,59.60
2023-09-18T02:58:59.700Z,59.80
2023-09-18T03:01:26.664Z,59.70
2023-09-18T03:03:53.759Z,59.00
2023-09-18T03:06:20.839Z,58.90
2023-09-18T03:08:47.669Z,59.10
2023-09-18T03:11:15.646Z,59.50
2023-09-18T03:13:50.304Z,59.10
2023-09-18T03:16:17.824Z,59.00
2023-09-18T03:18:44.813Z,59.80
2023-09-18T03:21:11.648Z,60.60
2023-09-18T03:23:38.696Z,60.80
2023-09-18T03:26:05.592Z,60.80
2023-09-18T03:28:32.785Z,60.80
2023-09-18T03:31:00.215Z,60.50
2023-09-18T03:33:27.105Z,60.70
2023-09-18T03:35:56.028Z,60.50
2023-09-18T03:38:23.374Z,60.70
2023-09-18T03:40:50.679Z,60.30
2023-09-18T03:43:18.286Z,60.40
2023-09-18T03:45:45.229Z,60.50
2023-09-18T03:48:12.981Z,60.40
2023-09-18T03:50:41.583Z,60.30
2023-09-18T03:53:09.982Z,60.40
2023-09-18T03:55:36.918Z,60.60
2023-09-18T03:58:06.201Z,60.30
2023-09-18T04:00:33.102Z,60.50
2023-09-18T04:02:59.969Z,60.50
2023-09-18T04:05:26.927Z,60.30
2023-09-18T04:07:53.864Z,61.70
2023-09-18T04:10:24.601Z,61.90
2023-09-18T04:12:52.509Z,61.50
2023-09-18T04:15:20.132Z,61.50
2023-09-18T04:17:47.653Z,61.00
2023-09-18T04:20:15.108Z,61.40
2023-09-18T04:22:50.965Z,61.60
2023-09-18T04:25:20.702Z,61.20
2023-09-18T04:27:51.375Z,61.60
2023-09-18T04:30:20.711Z,61.80
2023-09-18T04:32:48.320Z,61.80
2023-09-18T04:35:15.598Z,61.80
2023-09-18T04:37:42.544Z,61.80
2023-09-18T04:40:13.579Z,62.00
2023-09-18T04:42:41.630Z,61.90
2023-09-18T04:45:09.266Z,62.10
2023-09-18T04:47:37.014Z,62.50
2023-09-18T04:50:09.353Z,62.60
2023-09-18T04:52:38.257Z,62.60
2023-09-18T04:55:07.397Z,62.90
2023-09-18T04:57:35.288Z,62.60
2023-09-18T05:00:16.612Z,62.90
2023-09-18T05:02:45.490Z,63.10
2023-09-18T05:05:12.875Z,62.60
2023-09-18T05:07:40.254Z,63.10
2023-09-18T05:10:07.634Z,62.90
2023-09-18T05:12:34.830Z,62.50
2023-09-18T05:15:01.789Z,62.50
2023-09-18T05:17:53.284Z,62.10
2023-09-18T05:20:20.590Z,62.20
2023-09-18T05:22:47.518Z,62.60
2023-09-18T05:25:17.503Z,62.50
2023-09-18T05:27:47.251Z,62.50
2023-09-18T05:30:22.666Z,62.80
2023-09-18T05:32:49.927Z,62.50
2023-09-18T05:35:18.337Z,62.30
2023-09-18T05:37:45.679Z,62.50
2023-09-18T05:40:13.944Z,62.40
2023-09-18T05:42:44.687Z,62.20
2023-09-18T05:45:12.902Z,62.60
2023-09-18T05:47:40.347Z,62.30
2023-09-18T05:50:09.126Z,62.20
2023-09-18T05:52:36.711Z,62.20
2023-09-18T05:55:05.834Z,62.20
2023-09-18T05:57:33.145Z,62.00
2023-09-18T06:00:00.238Z,62.00
2023-09-18T06:02:27.260Z,62.40
2023-09-18T06:04:58.950Z,62.10
2023-09-18T06:07:26.194Z,62.00
2023-09-18T06:09:53.326Z,61.80
2023-09-18T06:12:20.355Z,62.00
2023-09-18T06:14:49.136Z,61.80
2023-09-18T06:17:16.521Z,61.90
2023-09-18T06:19:44.252Z,62.00
2023-09-18T06:22:11.185Z,61.90
2023-09-18T06:24:38.442Z,61.70
2023-09-18T06:27:05.893Z,61.20
2023-09-18T06:29:36.238Z,61.30
2023-09-18T06:32:03.486Z,60.00
2023-09-18T06:34:30.396Z,59.90
2023-09-18T06:36:57.229Z,59.20
2023-09-18T06:39:25.185Z,59.10
2023-09-18T06:41:52.117Z,59.20
2023-09-18T06:44:19.058Z,58.60
2023-09-18T06:46:46.005Z,58.20
2023-09-18T06:49:12.880Z,57.90
2023-09-18T06:51:43.538Z,57.70
2023-09-18T06:54:11.182Z,57.30
2023-09-18T06:56:38.296Z,57.40
2023-09-18T06:59:05.279Z,57.60
2023-09-18T07:01:33.184Z,57.40
2023-09-18T07:04:01.225Z,57.70
2023-09-18T07:06:28.542Z,57.60
2023-09-18T07:08:56.138Z,57.70
2023-09-18T07:11:25.950Z,58.00
2023-09-18T07:13:53.380Z,57.90
2023-09-18T07:16:20.581Z,57.90
2023-09-18T07:18:47.479Z,57.20
2023-09-18T07:21:14.494Z,57.20
2023-09-18T07:23:42.888Z,56.70
2023-09-18T07:26:10.027Z,56.00
2023-09-18T07:28:36.904Z,56.00
2023-09-18T07:31:08.289Z,55.60
2023-09-18T07:33:35.454Z,55.40
2023-09-18T07:36:02.602Z,55.40
2023-09-18T07:38:29.561Z,55.30
2023-09-18T07:40:57.659Z,55.00
2023-09-18T07:43:26.121Z,54.60
2023-09-18T07:45:54.333Z,54.60
2023-09-18T07:48:21.972Z,53.80
2023-09-18T07:53:18.310Z,54.00
2023-09-18T07:55:45.239Z,53.30
2023-09-18T07:58:12.926Z,52.70
2023-09-18T08:00:40.573Z,52.50
2023-09-18T08:05:34.382Z,50.40
2023-09-18T08:08:01.837Z,50.30
2023-09-18T08:10:28.937Z,50.30
2023-09-18T08:12:56.797Z,49.10
2023-09-18T08:15:23.792Z,49.40
2023-09-18T08:17:51.045Z,48.60
2023-09-18T08:20:18.218Z,48.60
2023-09-18T08:22:45.895Z,47.90
2023-09-18T08:25:13.528Z,47.80
2023-09-18T08:27:43.247Z,47.30
2023-09-18T08:30:11.309Z,48.10
2023-09-18T08:32:39.182Z,47.00
2023-09-18T08:35:07.108Z,46.40
2023-09-18T08:37:34.119Z,46.20
2023-09-18T08:40:10.965Z,46.00
2023-09-18T08:42:57.873Z,46.10
2023-09-18T08:45:36.719Z,46.30
2023-09-18T08:48:04.403Z,45.00
2023-09-18T08:50:32.124Z,44.90
2023-09-18T08:52:59.461Z,45.00
2023-09-18T08:55:26.475Z,43.80
2023-09-18T08:57:55.625Z,42.60
2023-09-18T09:00:22.526Z,42.00
2023-09-18T09:02:53.764Z,41.20
2023-09-18T09:05:21.890Z,40.80
2023-09-18T09:07:49.713Z,41.20
2023-09-18T09:10:16.684Z,40.20
2023-09-18T09:12:50.955Z,38.90
2023-09-18T09:15:18.137Z,39.10
2023-09-18T09:17:48.240Z,37.90
2023-09-18T09:20:16.517Z,37.50
2023-09-18T09:22:43.610Z,36.40
2023-09-18T09:25:27.361Z,35.10
2023-09-18T09:27:54.918Z,33.70
2023-09-18T09:30:24.676Z,35.50
2023-09-18T09:32:53.501Z,34.60
2023-09-18T09:35:31.590Z,33.80
2023-09-18T09:38:01.879Z,34.10
2023-09-18T09:40:32.245Z,33.30
2023-09-18T09:43:03.051Z,33.80
2023-09-18T09:45:31.273Z,33.30
2023-09-18T09:47:59.582Z,32.90
2023-09-18T09:50:29.008Z,32.40
2023-09-18T09:52:56.725Z,32.20
2023-09-18T09:55:31.886Z,32.60
2023-09-18T09:58:03.313Z,31.80
2023-09-18T10:00:44.344Z,32.10
2023-09-18T10:03:16.449Z,33.10
2023-09-18T10:05:45.869Z,33.40
2023-09-18T10:08:23.312Z,34.00
2023-09-18T10:10:52.876Z,33.10
2023-09-18T10:13:41.784Z,33.10
2023-09-18T10:16:11.349Z,33.20
2023-09-18T10:18:53.932Z,33.50
2023-09-18T10:21:33.067Z,33.60
2023-09-18T10:24:26.937Z,33.70
2023-09-18T10:26:57.910Z,33.30
2023-09-18T10:29:25.856Z,33.40
2023-09-18T10:31:54.966Z,32.90
2023-09-18T10:34:25.006Z,33.10
2023-09-18T10:36:54.028Z,33.10
2023-09-18T10:39:25.090Z,33.10
2023-09-18T10:41:57.017Z,34.00
2023-09-18T10:44:27.525Z,33.90
2023-09-18T10:46:54.827Z,33.30
2023-09-18T10:49:22.082Z,34.00
2023-09-18T10:51:49.601Z,33.40
2023-09-18T10:54:18.753Z,33.30
2023-09-18T10:56:47.648Z,33.60
2023-09-18T10:59:16.737Z,33.00
2023-09-18T11:01:44.261Z,32.90
2023-09-18T11:04:11.913Z,33.30
2023-09-18T11:06:57.271Z,34.10
2023-09-18T11:09:31.575Z,33.80
2023-09-18T11:11:59.128Z,34.00
2023-09-18T11:14:46.223Z,35.10
2023-09-18T11:17:35.576Z,34.80
2023-09-18T11:20:19.152Z,34.80
2023-09-18T11:22:56.389Z,35.10
2023-09-18T11:25:46.637Z,35.90
2023-09-18T11:28:23.115Z,36.80
2023-09-18T11:31:01.641Z,36.70
2023-09-18T11:33:38.580Z,36.70
2023-09-18T11:36:16.164Z,37.10
2023-09-18T11:39:10.528Z,37.20
2023-09-18T11:41:39.857Z,37.90
2023-09-18T11:44:15.860Z,39.00
2023-09-18T11:46:47.305Z,39.10
2023-09-18T11:49:14.468Z,39.60
2023-09-18T11:51:42.851Z,39.20
2023-09-18T11:54:10.997Z,39.20
2023-09-18T11:56:40.717Z,39.30
2023-09-18T11:59:07.934Z,39.20
2023-09-18T12:01:37.393Z,39.50
2023-09-18T12:04:14.750Z,39.30
2023-09-18T12:06:43.355Z,39.90
2023-09-18T12:09:11.263Z,39.90
2023-09-18T12:11:43.204Z,39.20
2023-09-18T12:14:10.315Z,39.40
2023-09-18T12:16:40.909Z,40.30
2023-09-18T12:19:08.569Z,40.20
2023-09-18T12:21:41.858Z,39.60
2023-09-18T12:24:17.442Z,38.90
2023-09-18T12:26:44.425Z,39.10
2023-09-18T12:29:12.097Z,38.80
2023-09-18T12:31:39.875Z,39.60
2023-09-18T12:34:14.880Z,39.00
2023-09-18T12:36:44.744Z,37.90
2023-09-18T12:39:11.639Z,37.90
2023-09-18T12:41:39.465Z,37.90
2023-09-18T12:44:08.082Z,36.90
2023-09-18T12:46:36.103Z,36.80
2023-09-18T12:49:17.206Z,37.20
2023-09-18T12:51:45.464Z,37.10
2023-09-18T12:54:14.717Z,36.80
2023-09-18T12:56:43.001Z,37.40
2023-09-18T12:59:15.373Z,38.20
2023-09-18T13:01:48.282Z,38.40
2023-09-18T13:04:16.566Z,38.40
2023-09-18T13:06:43.639Z,38.60
2023-09-18T13:09:24.204Z,38.30
2023-09-18T13:11:58.543Z,39.00
2023-09-18T13:14:28.787Z,38.80
2023-09-18T13:17:05.488Z,38.60
2023-09-18T13:19:32.931Z,36.80
2023-09-18T13:21:59.766Z,36.80
2023-09-18T13:24:27.619Z,37.40
2023-09-18T13:26:55.890Z,37.60
2023-09-18T13:29:24.524Z,36.90
2023-09-18T13:31:52.605Z,37.50
2023-09-18T13:34:19.559Z,36.40
2023-09-18T13:36:47.061Z,36.10
2023-09-18T13:39:14.704Z,35.20
2023-09-18T13:41:44.689Z,35.50
2023-09-18T13:44:11.607Z,35.00
2023-09-18T13:46:39.305Z,35.30
2023-09-18T13:49:06.502Z,35.00
2023-09-18T13:51:34.098Z,35.40
2023-09-18T13:54:01.286Z,35.60
2023-09-18T13:56:29.200Z,34.70
2023-09-18T13:58:57.115Z,35.20
2023-09-18T14:01:26.966Z,35.00
2023-09-18T14:03:54.751Z,33.90
2023-09-18T14:06:21.872Z,33.40
2023-09-18T14:08:49.108Z,34.30
2023-09-18T14:11:17.176Z,34.90
2023-09-18T14:13:44.331Z,34.50
2023-09-18T14:16:12.168Z,34.20
2023-09-18T14:18:39.667Z,33.40
2023-09-18T14:21:07.811Z,34.10
2023-09-18T14:23:35.765Z,33.60
2023-09-18T14:26:03.014Z,33.70
2023-09-18T14:28:29.876Z,34.00
2023-09-18T14:30:56.956Z,33.90
2023-09-18T14:33:23.903Z,34.10
2023-09-18T14:35:51.394Z,34.60
2023-09-18T14:38:18.343Z,34.60
2023-09-18T14:40:45.192Z,34.40
2023-09-18T14:43:12.830Z,34.60
2023-09-18T14:45:41.225Z,34.30
2023-09-18T14:48:08.252Z,34.50
2023-09-18T14:50:35.247Z,35.10
2023-09-18T14:53:02.164Z,35.40
2023-09-18T14:55:29.113Z,34.90
2023-09-18T14:57:55.966Z,35.10
2023-09-18T15:00:22.823Z,34.60
2023-09-18T15:02:49.908Z,35.10
2023-09-18T15:05:19.089Z,35.70
2023-09-18T15:07:46.014Z,36.10
2023-09-18T15:10:12.995Z,36.20
2023-09-18T15:12:41.877Z,36.70
2023-09-18T15:15:09.054Z,36.80
2023-09-18T15:17:35.978Z,37.30
2023-09-18T15:20:02.974Z,37.00
2023-09-18T15:22:32.389Z,37.60
2023-09-18T15:25:00.874Z,37.60
2023-09-18T15:27:28.100Z,37.90
2023-09-18T15:29:55.004Z,38.40
2023-09-18T15:32:22.788Z,39.00
2023-09-18T15:34:49.676Z,38.60
2023-09-18T15:37:17.335Z,38.70
2023-09-18T15:39:44.863Z,39.00
2023-09-18T15:42:11.780Z,39.10
2023-09-18T15:44:39.158Z,39.30
2023-09-18T15:47:07.164Z,39.60
2023-09-18T15:49:34.213Z,39.80
2023-09-18T15:52:01.037Z,39.90
2023-09-18T15:54:27.922Z,40.00
2023-09-18T15:56:56.477Z,40.20
2023-09-18T15:59:23.460Z,40.50
2023-09-18T16:01:50.422Z,40.90
2023-09-18T16:04:17.617Z,40.80
2023-09-18T16:06:45.244Z,41.00
2023-09-18T16:09:14.039Z,41.50
2023-09-18T16:11:48.061Z,41.30
2023-09-18T16:14:15.406Z,41.50
2023-09-18T16:16:42.360Z,41.60
2023-09-18T16:19:09.190Z,41.50
2023-09-18T16:21:37.380Z,41.50
2023-09-18T16:24:08.043Z,41.90
2023-09-18T16:26:35.176Z,42.30
2023-09-18T16:29:02.117Z,42.60
2023-09-18T16:31:30.574Z,43.00
2023-09-18T16:33:57.717Z,42.70
2023-09-18T16:36:24.643Z,43.20
2023-09-18T16:38:51.512Z,43.20
2023-09-18T16:41:19.212Z,42.70
2023-09-18T16:43:46.087Z,42.80
2023-09-18T16:46:12.977Z,42.90
2023-09-18T16:48:39.886Z,43.00
2023-09-18T16:51:07.782Z,42.80
2023-09-18T16:53:34.754Z,43.20
2023-09-18T16:56:01.865Z,42.70
2023-09-18T16:58:28.736Z,42.90
2023-09-18T17:00:57.544Z,43.60
2023-09-18T17:03:24.625Z,44.00
2023-09-18T17:05:51.495Z,44.60
2023-09-18T17:08:18.401Z,44.90
2023-09-18T17:10:45.245Z,44.60
2023-09-18T17:13:12.152Z,44.30
2023-09-18T17:15:39.327Z,44.30
2023-09-18T17:18:06.160Z,44.60
2023-09-18T17:20:33.893Z,44.40
2023-09-18T17:23:00.792Z,44.40
2023-09-18T17:25:27.745Z,43.90
2023-09-18T17:27:55.609Z,44.00
2023-09-18T17:30:24.784Z,44.00
2023-09-18T17:32:51.698Z,44.00
2023-09-18T17:35:18.707Z,44.00
2023-09-18T17:37:46.788Z,43.90
2023-09-18T17:40:14.035Z,44.10
2023-09-18T17:42:40.859Z,44.40
2023-09-18T17:45:08.395Z,44.70
2023-09-18T17:47:35.542Z,44.70
2023-09-18T17:50:02.356Z,44.80
2023-09-18T17:52:29.614Z,45.40
2023-09-18T17:54:57.236Z,46.00
2023-09-18T17:57:24.191Z,46.30
2023-09-18T17:59:53.257Z,47.30
2023-09-18T18:02:20.390Z,47.70
2023-09-18T18:04:48.657Z,48.50
2023-09-18T18:07:15.784Z,49.30
2023-09-18T18:09:42.745Z,49.80
2023-09-18T18:12:10.083Z,50.20
2023-09-18T18:14:37.068Z,51.00
2023-09-18T18:17:03.989Z,51.40
2023-09-18T18:19:31.273Z,52.40
2023-09-18T18:21:58.152Z,52.90
2023-09-18T18:24:24.977Z,53.50
2023-09-18T18:26:53.585Z,54.10
2023-09-18T18:29:21.789Z,54.10
2023-09-18T18:31:50.855Z,54.90
2023-09-18T18:34:18.753Z,55.40
2023-09-18T18:36:49.581Z,55.80
2023-09-18T18:39:17.201Z,55.30
2023-09-18T18:41:44.077Z,56.20
2023-09-18T18:44:10.961Z,56.60
2023-09-18T18:46:37.889Z,56.90
2023-09-18T18:49:04.876Z,57.20
2023-09-18T18:51:33.158Z,57.50
2023-09-18T18:54:01.752Z,57.50
2023-09-18T18:56:28.643Z,57.90
2023-09-18T18:58:55.680Z,58.10
2023-09-18T19:01:26.173Z,58.20
2023-09-18T19:03:54.902Z,58.20
2023-09-18T19:06:22.205Z,58.10
2023-09-18T19:08:49.040Z,58.50
2023-09-18T19:11:16.267Z,58.90
2023-09-18T19:13:44.748Z,59.20
2023-09-18T19:16:12.791Z,59.50
2023-09-18T19:18:41.447Z,60.10
2023-09-18T19:21:12.397Z,60.60
2023-09-18T19:23:40.686Z,61.00
2023-09-18T19:26:09.355Z,61.30
2023-09-18T19:28:36.625Z,61.60
2023-09-18T19:31:07.597Z,62.10
2023-09-18T19:33:39.619Z,62.40
2023-09-18T19:36:07.550Z,62.80
2023-09-18T19:38:37.313Z,63.20
2023-09-18T19:41:05.316Z,63.50
2023-09-18T19:43:33.042Z,63.90
2023-09-18T19:46:00.184Z,64.00
2023-09-18T19:48:27.498Z,64.30
2023-09-18T19:51:01.266Z,64.40
2023-09-18T19:53:29.142Z,64.50
2023-09-18T19:55:56.549Z,64.70
2023-09-18T19:58:23.484Z,64.90
2023-09-18T20:00:50.427Z,65.30
2023-09-18T20:03:17.429Z,65.70
2023-09-18T20:05:44.795Z,65.90
2023-09-18T20:11:02.577Z,67.60
2023-09-18T20:13:30.678Z,67.80
2023-09-18T20:16:00.721Z,67.90
2023-09-18T20:18:29.026Z,68.40
2023-09-18T20:21:02.689Z,68.40
2023-09-18T20:23:31.585Z,68.90
2023-09-18T20:26:02.271Z,68.90
2023-09-18T20:28:30.330Z,69.20
2023-09-18T20:30:58.227Z,69.50
2023-09-18T20:33:25.356Z,69.50
2023-09-18T20:36:07.039Z,69.50
2023-09-18T20:38:34.111Z,69.30
2023-09-18T20:41:01.064Z,69.60
2023-09-18T20:43:30.576Z,69.90
2023-09-18T20:45:58.059Z,70.00
2023-09-18T20:48:25.057Z,69.90
2023-09-18T20:50:52.885Z,70.30
2023-09-18T20:53:19.947Z,70.30
2023-09-18T20:55:47.916Z,70.40
2023-09-18T20:58:16.027Z,70.40
2023-09-18T21:00:42.861Z,70.00
2023-09-18T21:03:09.749Z,70.30
2023-09-18T21:05:36.761Z,70.70
2023-09-18T21:08:03.817Z,70.20
2023-09-18T21:10:33.810Z,70.40
2023-09-18T21:13:00.867Z,70.50
2023-09-18T21:15:27.707Z,70.90
2023-09-18T21:17:54.554Z,70.80
2023-09-18T21:20:21.441Z,71.10
2023-09-18T21:22:48.229Z,70.90
2023-09-18T21:25:15.073Z,70.90
2023-09-18T21:27:41.938Z,71.30
2023-09-18T21:30:09.423Z,70.90
2023-09-18T21:32:37.541Z,71.20
2023-09-18T21:35:04.937Z,70.50
2023-09-18T21:37:31.862Z,71.40
2023-09-18T21:39:58.846Z,70.90
2023-09-18T21:42:25.682Z,71.00
2023-09-18T21:44:52.738Z,70.80
2023-09-18T21:47:19.643Z,71.30
2023-09-18T21:49:46.432Z,70.90
2023-09-18T21:52:15.080Z,71.10
2023-09-18T21:54:42.023Z,71.00
2023-09-18T21:57:08.927Z,70.70
2023-09-18T21:59:35.895Z,70.60
2023-09-18T22:02:02.865Z,70.50
2023-09-18T22:04:30.112Z,70.80
2023-09-18T22:06:57.072Z,70.50
2023-09-18T22:09:26.163Z,70.10
2023-09-18T22:11:53.237Z,70.00
2023-09-18T22:14:20.090Z,69.90
2023-09-18T22:16:46.940Z,69.80
2023-09-18T22:19:13.800Z,69.90
2023-09-18T22:21:40.628Z,69.50
2023-09-18T22:24:07.806Z,69.50
2023-09-18T22:26:34.724Z,69.20
2023-09-18T22:29:01.624Z,69.20
2023-09-18T22:31:29.280Z,69.10
2023-09-18T22:33:56.280Z,69.10
2023-09-18T22:36:28.292Z,68.70
2023-09-18T22:39:11.173Z,68.00
2023-09-18T22:41:39.902Z,68.10
2023-09-18T22:44:44.593Z,68.00
2023-09-18T22:47:49.633Z,67.60
2023-09-18T22:50:54.115Z,67.50
2023-09-18T22:53:23.405Z,67.60
2023-09-18T22:55:51.188Z,67.70
2023-09-18T22:58:28.955Z,67.70
2023-09-18T23:00:57.848Z,67.50
2023-09-18T23:03:25.230Z,67.20
2023-09-18T23:05:55.740Z,67.20
2023-09-18T23:08:23.384Z,67.20
2023-09-18T23:10:50.345Z,67.30
2023-09-18T23:13:17.365Z,67.10
2023-09-18T23:15:44.648Z,66.90
2023-09-18T23:18:12.384Z,66.70
2023-09-18T23:20:41.130Z,67.00
2023-09-18T23:23:08.707Z,67.30
2023-09-18T23:25:38.883Z,67.20
2023-09-18T23:28:07.467Z,67.50
2023-09-18T23:30:34.854Z,67.50
2023-09-18T23:33:03.416Z,67.30
2023-09-18T23:35:35.104Z,67.60
2023-09-18T23:38:05.052Z,67.20
2023-09-18T23:40:33.534Z,67.40
2023-09-18T23:43:04.875Z,67.20
2023-09-18T23:45:39.255Z,67.10
2023-09-18T23:48:19.719Z,67.30
2023-09-18T23:50:51.506Z,67.30
2023-09-18T23:53:20.606Z,67.60
2023-09-18T23:55:51.211Z,67.70
2023-09-18T23:58:18.716Z,67.70
